Burgos, España

4:01 PM CEST en Septiembre 02, 2014 (GMT +0200)
Illera | Change Station
CLOSE
Current Station
Estación meteorológica personal
Location: Burgos, CASTILLA Y LE�N
Altura: 2851 ft
Estaciones meteorológicas cercanas

Alt 2851 ft 42.35 °N, 3.69 °W | Updated 2 seconds ago

Clear
Despejado
97.3 ° F
Sensación térmica 93 ° F
N
3.5
Viento Variable Viento desde Este
Gusts 3.5 mph

Hoy
Alta -- | Baja -- ° F
--% Posibilidad de precipitaciones
Ayer
Alta -- | Baja -- ° F
Precip. -- pul
7:40 AM 8:47 PM
Cuarto creciente, 51% visible
Presión 30.01 pul
Visibilidad -9999.0 Millas
Nubes
Índice de calor 93 ° F
Punto de rocío 44 ° F
Humedad 16%
Precipitaciones 0.00 pul
Espesor de la nieve No disponible.
UV No disponible.
Polen No disponible.
Calidad del aire No disponible.
Flu Activity No disponible.
METAR LEVT 021330Z 05008KT 350V100 CAVOK 29/10 Q1016

More Conditions Fewer Conditions

Presión 30.01 pul
Visibilidad -9999.0 Millas
Nubes
Índice de calor 93 ° F
Punto de rocío 44 ° F
Humedad 16%
Precipitaciones 0.00 pul
Espesor de la nieve No disponible.
UV No disponible.
Polen No disponible.
Calidad del aire No disponible.
Flu Activity No disponible.
METAR LEVT 021330Z 05008KT 350V100 CAVOK 29/10 Q1016

More Conditions Fewer Conditions

10-Day Weather Forecast

Almanac

Astronomía

Sep. 02, 2014 Salida Puesta
Hora real 7:40 AM CEST 8:47 PM CEST
Crepúsculo civil 7:11 AM CEST 9:15 PM CEST
Crepúsculo náutico 6:37 AM CEST 9:50 PM CEST
Crepúsculo astronómico 6:00 AM CEST 10:26 PM CEST
Luna 3:19 PM CEST 12:30 AM CEST
Horas de luz 14h 04m
Horas de luz
13h 06m
Tomorrow will be 2m 45s shorter.
Cuarto creciente, 51% of the Moon is Illuminated
Hoy
Cuarto creciente
Sep 8
Luna llena
Sep 15
Cuarto menguante
Sep 24
Nueva
Oct 1
Cuarto creciente

Extremos de ayer

Máximos del país Bajas del país

Community

WunderPhotos

Upload Photos

1,749,670 ¡fotos cargadas!

WunderBlogs® & News

Nearby

Calidad del aire

Not available.

Grosos de nieve

Not available.

Actividad de terremotos

Ciudad Distance Mag. Tiempo y dato
No hay informes recientes de la actividad sísmica.
Magnitud mínima muestra es 2,5.

Temperaturas de aguas costeras

Lugar Temperatura
Sin partes meteorológicos de las estaciones

Estaciones meteorológicas cercanas